createdAt,value
2018-10-16T00:01:57.477Z,14.87
2018-10-16T00:04:32.092Z,16.33
2018-10-16T00:07:07.401Z,17.17
2018-10-16T00:09:41.941Z,15.27
2018-10-16T00:12:16.542Z,15.87
2018-10-16T00:14:51.091Z,15.30
2018-10-16T00:17:26.762Z,16.47
2018-10-16T00:20:02.492Z,15.70
2018-10-16T00:22:37.501Z,14.77
2018-10-16T00:25:13.663Z,14.80
2018-10-16T00:27:48.169Z,15.33
2018-10-16T00:30:23.713Z,14.50
2018-10-16T00:32:58.289Z,13.80
2018-10-16T00:35:33.621Z,14.60
2018-10-16T00:38:08.206Z,14.43
2018-10-16T00:40:43.598Z,15.83
2018-10-16T00:43:18.181Z,15.00
2018-10-16T00:45:52.745Z,14.83
2018-10-16T00:48:27.217Z,14.80
2018-10-16T00:51:02.101Z,15.67
2018-10-16T00:53:37.345Z,14.30
2018-10-16T00:56:13.491Z,14.40
2018-10-16T00:58:49.853Z,15.13
2018-10-16T01:01:31.451Z,15.60
2018-10-16T01:04:09.202Z,16.17
2018-10-16T01:06:46.728Z,14.60
2018-10-16T01:09:24.596Z,16.40
2018-10-16T01:11:59.639Z,15.23
2018-10-16T01:14:35.621Z,14.10
2018-10-16T01:17:12.561Z,14.93
2018-10-16T01:19:48.037Z,14.87
2018-10-16T01:22:23.792Z,15.30
2018-10-16T01:24:58.401Z,14.00
2018-10-16T01:27:33.589Z,15.73
2018-10-16T01:30:09.008Z,16.90
2018-10-16T01:32:47.397Z,13.13
2018-10-16T01:35:23.130Z,14.40
2018-10-16T01:37:58.106Z,13.50
2018-10-16T01:40:40.439Z,17.53
2018-10-16T01:43:16.033Z,13.63
2018-10-16T01:45:52.233Z,14.47
2018-10-16T01:48:27.162Z,14.67
2018-10-16T01:51:02.668Z,13.80
2018-10-16T01:53:39.041Z,13.80
2018-10-16T01:56:13.576Z,13.67
2018-10-16T01:58:49.357Z,14.00
2018-10-16T02:01:24.338Z,15.37
2018-10-16T02:04:00.813Z,13.70
2018-10-16T02:06:35.781Z,14.53
2018-10-16T02:09:13.055Z,15.50
2018-10-16T02:11:47.545Z,15.90
2018-10-16T02:14:25.875Z,16.90
2018-10-16T02:17:01.336Z,15.40
2018-10-16T02:19:35.866Z,15.17
2018-10-16T02:22:11.278Z,14.93
2018-10-16T02:24:47.138Z,14.10
2018-10-16T02:27:24.548Z,14.67
2018-10-16T02:30:00.269Z,14.77
2018-10-16T02:32:37.442Z,14.70
2018-10-16T02:35:12.622Z,15.50
2018-10-16T02:37:47.298Z,15.40
2018-10-16T02:40:22.130Z,13.90
2018-10-16T02:42:57.100Z,16.03
2018-10-16T02:45:32.526Z,13.43
2018-10-16T02:48:07.063Z,13.80
2018-10-16T02:50:42.386Z,13.57
2018-10-16T02:53:19.360Z,15.20
2018-10-16T02:55:54.807Z,14.90
2018-10-16T02:58:29.516Z,14.40
2018-10-16T03:01:07.188Z,15.87
2018-10-16T03:03:42.390Z,14.90
2018-10-16T03:06:17.730Z,15.80
2018-10-16T03:08:52.318Z,15.67
2018-10-16T03:11:26.945Z,15.80
2018-10-16T03:14:01.791Z,16.17
2018-10-16T03:16:36.461Z,16.37
2018-10-16T03:19:11.034Z,14.80
2018-10-16T03:21:46.199Z,14.70
2018-10-16T03:24:20.556Z,13.67
2018-10-16T03:26:56.336Z,15.37
2018-10-16T03:29:30.761Z,14.83
2018-10-16T03:32:05.749Z,14.17
2018-10-16T03:34:41.602Z,15.10
2018-10-16T03:37:18.311Z,15.13
2018-10-16T03:39:54.854Z,14.67
2018-10-16T03:42:29.440Z,15.90
2018-10-16T03:45:04.561Z,16.80
2018-10-16T03:47:39.344Z,15.17
2018-10-16T03:50:14.448Z,16.70
2018-10-16T03:52:49.597Z,17.10
2018-10-16T03:55:24.997Z,15.03
2018-10-16T03:58:02.925Z,15.47
2018-10-16T04:00:37.813Z,15.73
2018-10-16T04:03:12.285Z,16.60
2018-10-16T04:05:46.922Z,15.70
2018-10-16T04:08:21.497Z,17.47
2018-10-16T04:10:56.663Z,16.87
2018-10-16T04:13:34.738Z,16.23
2018-10-16T04:16:09.359Z,16.03
2018-10-16T04:18:44.797Z,14.80
2018-10-16T04:21:19.256Z,14.93
2018-10-16T04:23:57.061Z,17.37
2018-10-16T04:26:33.336Z,17.30
2018-10-16T04:29:13.011Z,17.33
2018-10-16T04:31:48.166Z,16.70
2018-10-16T04:34:23.040Z,15.50
2018-10-16T04:37:00.373Z,17.40
2018-10-16T04:39:36.716Z,17.33
2018-10-16T04:42:13.523Z,16.47
2018-10-16T04:44:48.639Z,16.30
2018-10-16T04:47:23.736Z,16.20
2018-10-16T04:49:58.666Z,18.03
2018-10-16T04:52:33.446Z,15.63
2018-10-16T04:55:09.586Z,16.30
2018-10-16T04:57:44.324Z,16.07
2018-10-16T05:00:18.934Z,15.00
2018-10-16T05:02:53.482Z,16.47
2018-10-16T05:05:28.715Z,15.90
2018-10-16T05:08:03.097Z,16.17
2018-10-16T05:10:37.495Z,17.70
2018-10-16T05:13:11.902Z,16.50
2018-10-16T05:15:46.472Z,17.70
2018-10-16T05:18:23.262Z,16.13
2018-10-16T05:20:58.688Z,17.30
2018-10-16T05:23:33.653Z,16.40
2018-10-16T05:26:09.137Z,16.33
2018-10-16T05:28:44.861Z,15.53
2018-10-16T05:31:20.766Z,17.83
2018-10-16T05:33:55.994Z,16.97
2018-10-16T05:36:31.011Z,16.63
2018-10-16T05:39:08.527Z,17.30
2018-10-16T05:41:43.841Z,15.37
2018-10-16T05:44:18.852Z,17.10
2018-10-16T05:46:54.034Z,16.37
2018-10-16T05:49:31.101Z,16.40
2018-10-16T05:52:11.852Z,16.47
2018-10-16T05:54:48.117Z,16.47
2018-10-16T05:57:27.729Z,17.25
2018-10-16T06:03:00.372Z,17.47
2018-10-16T06:05:36.965Z,17.62
2018-10-16T06:08:11.574Z,15.37
2018-10-16T06:10:46.433Z,15.60
2018-10-16T06:13:21.405Z,16.47
2018-10-16T06:15:56.083Z,16.77
2018-10-16T06:18:30.557Z,17.70
2018-10-16T06:21:06.005Z,17.23
2018-10-16T06:23:40.666Z,20.03
2018-10-16T06:26:18.040Z,19.20
2018-10-16T06:28:53.530Z,17.87
2018-10-16T06:31:30.891Z,19.93
2018-10-16T06:34:08.957Z,18.20
2018-10-16T06:36:45.293Z,17.07
2018-10-16T06:39:19.867Z,16.90
2018-10-16T06:41:58.135Z,19.27
2018-10-16T06:44:32.629Z,19.90
2018-10-16T06:47:07.615Z,20.40
2018-10-16T06:49:42.280Z,19.77
2018-10-16T06:52:17.030Z,20.23
2018-10-16T06:54:51.431Z,18.37
2018-10-16T06:57:25.769Z,19.77
2018-10-16T07:00:00.113Z,17.60
2018-10-16T07:02:34.850Z,17.63
2018-10-16T07:05:09.780Z,19.73
2018-10-16T07:07:45.588Z,20.73
2018-10-16T07:10:20.115Z,18.67
2018-10-16T07:12:54.422Z,17.60
2018-10-16T07:15:29.398Z,17.87
2018-10-16T07:18:08.704Z,18.70
2018-10-16T07:20:43.690Z,19.23
2018-10-16T07:23:19.181Z,18.53
2018-10-16T07:25:54.198Z,17.70
2018-10-16T07:28:29.156Z,17.63
2018-10-16T07:31:05.832Z,16.10
2018-10-16T07:33:40.145Z,17.70
2018-10-16T07:36:16.041Z,15.97
2018-10-16T07:38:51.395Z,16.87
2018-10-16T07:41:26.089Z,17.07
2018-10-16T07:44:01.070Z,17.43
2018-10-16T07:46:36.470Z,17.93
2018-10-16T07:49:10.723Z,18.70
2018-10-16T07:51:46.003Z,18.03
2018-10-16T07:54:21.978Z,18.17
2018-10-16T07:56:59.982Z,15.90
2018-10-16T07:59:35.249Z,18.33
2018-10-16T08:02:11.466Z,18.10
2018-10-16T08:04:49.162Z,17.67
2018-10-16T08:07:25.827Z,17.47
2018-10-16T08:10:01.085Z,19.10
2018-10-16T08:12:37.447Z,17.43
2018-10-16T08:15:12.161Z,18.63
2018-10-16T08:17:46.580Z,16.90
2018-10-16T08:20:22.565Z,18.10
2018-10-16T08:22:59.683Z,17.80
2018-10-16T08:25:34.333Z,16.67
2018-10-16T08:28:09.741Z,17.27
2018-10-16T08:30:44.344Z,18.17
2018-10-16T08:33:20.353Z,16.93
2018-10-16T08:35:57.571Z,16.90
2018-10-16T08:38:43.152Z,17.60
2018-10-16T08:41:17.713Z,16.23
2018-10-16T08:44:04.482Z,15.43
2018-10-16T08:46:50.980Z,18.13
2018-10-16T08:49:36.982Z,17.60
2018-10-16T08:52:18.686Z,16.23
2018-10-16T08:54:54.018Z,17.10
2018-10-16T08:57:31.595Z,18.00
2018-10-16T09:00:10.529Z,16.77
2018-10-16T09:02:45.497Z,16.70
2018-10-16T09:05:19.831Z,18.90
2018-10-16T09:07:54.499Z,16.10
2018-10-16T09:10:34.375Z,16.53
2018-10-16T09:13:11.866Z,17.50
2018-10-16T09:15:52.610Z,18.27
2018-10-16T09:18:27.066Z,16.17
2018-10-16T09:21:01.671Z,18.60
2018-10-16T09:23:36.526Z,18.40
2018-10-16T09:26:11.019Z,18.80
2018-10-16T09:28:45.753Z,17.20
2018-10-16T09:31:25.597Z,19.57
2018-10-16T09:34:00.866Z,19.30
2018-10-16T09:36:46.070Z,20.37
2018-10-16T09:39:29.019Z,18.40
2018-10-16T09:42:06.570Z,19.60
2018-10-16T09:44:45.553Z,18.83
2018-10-16T09:47:24.500Z,21.53
2018-10-16T09:50:06.222Z,20.40
2018-10-16T09:52:42.069Z,18.33
2018-10-16T09:55:22.189Z,19.33
2018-10-16T09:58:02.317Z,19.70
2018-10-16T10:00:44.584Z,19.03
2018-10-16T10:03:25.730Z,19.50
2018-10-16T10:06:06.681Z,19.10
2018-10-16T10:08:52.982Z,17.57
2018-10-16T10:11:43.863Z,20.10
2018-10-16T10:14:31.845Z,18.67
2018-10-16T10:17:13.136Z,18.33
2018-10-16T10:19:56.232Z,19.50
2018-10-16T10:22:32.662Z,19.90
2018-10-16T10:29:01.494Z,19.83
2018-10-16T10:34:21.057Z,20.63
2018-10-16T10:37:11.302Z,18.23
2018-10-16T10:39:48.440Z,20.17
2018-10-16T10:42:36.769Z,18.93
2018-10-16T10:45:21.917Z,20.30
2018-10-16T10:48:01.486Z,18.17
2018-10-16T10:50:39.807Z,19.30
2018-10-16T10:53:23.158Z,19.37
2018-10-16T10:56:09.657Z,20.20
2018-10-16T10:59:02.512Z,19.40
2018-10-16T11:01:43.220Z,19.63
2018-10-16T11:04:26.405Z,20.40
2018-10-16T11:10:00.129Z,18.13
2018-10-16T11:12:37.927Z,19.40
2018-10-16T11:15:16.232Z,18.43
2018-10-16T11:17:51.873Z,18.60
2018-10-16T11:20:29.576Z,18.30
2018-10-16T11:23:04.560Z,18.00
2018-10-16T11:25:54.661Z,18.07
2018-10-16T11:28:34.112Z,17.50
2018-10-16T11:31:11.967Z,18.97
2018-10-16T11:33:49.957Z,17.20
2018-10-16T11:36:28.945Z,18.47
2018-10-16T11:39:07.725Z,18.73
2018-10-16T11:41:45.939Z,20.40
2018-10-16T11:44:22.363Z,16.77
2018-10-16T11:46:57.011Z,18.37
2018-10-16T11:49:32.078Z,19.50
2018-10-16T11:52:08.327Z,19.70
2018-10-16T11:54:43.786Z,22.70
2018-10-16T11:57:19.487Z,21.30
2018-10-16T11:59:55.463Z,21.93
2018-10-16T12:02:33.922Z,20.50
2018-10-16T12:05:10.120Z,19.40
2018-10-16T12:07:46.838Z,22.20
2018-10-16T12:10:21.517Z,21.37
2018-10-16T12:12:56.146Z,20.67
2018-10-16T12:15:31.218Z,19.13
2018-10-16T12:18:12.363Z,21.17
2018-10-16T12:20:53.569Z,20.77
2018-10-16T12:23:28.653Z,19.20
2018-10-16T12:26:03.171Z,19.00
2018-10-16T12:28:38.445Z,18.40
2018-10-16T12:31:13.872Z,19.23
2018-10-16T12:33:54.165Z,17.70
2018-10-16T12:36:32.651Z,19.57
2018-10-16T12:39:17.945Z,17.60
2018-10-16T12:41:52.993Z,17.03
2018-10-16T12:44:35.271Z,18.00
2018-10-16T12:47:17.126Z,14.87
2018-10-16T12:50:07.483Z,14.97
2018-10-16T12:52:51.197Z,15.93
2018-10-16T12:58:22.607Z,14.23
2018-10-16T13:00:58.238Z,14.80
2018-10-16T13:03:32.572Z,12.77
2018-10-16T13:06:07.180Z,15.47
2018-10-16T13:08:41.724Z,15.27
2018-10-16T13:11:16.590Z,13.90
2018-10-16T13:13:52.805Z,12.07
2018-10-16T13:16:30.669Z,12.57
2018-10-16T13:19:06.597Z,12.90
2018-10-16T13:21:41.776Z,14.00
2018-10-16T13:24:17.522Z,14.77
2018-10-16T13:26:52.306Z,17.90
2018-10-16T13:29:27.214Z,16.03
2018-10-16T13:32:03.748Z,15.90
2018-10-16T13:34:39.258Z,16.17
2018-10-16T13:37:15.839Z,18.40
2018-10-16T13:39:52.217Z,18.00
2018-10-16T13:42:27.940Z,17.63
2018-10-16T13:45:04.321Z,17.03
2018-10-16T13:47:38.662Z,17.57
2018-10-16T13:50:16.136Z,17.50
2018-10-16T13:52:50.459Z,17.00
2018-10-16T13:55:24.870Z,18.70
2018-10-16T13:57:59.134Z,18.70
2018-10-16T14:00:33.860Z,19.47
2018-10-16T14:03:09.579Z,17.50
2018-10-16T14:05:51.863Z,16.77
2018-10-16T14:08:42.044Z,17.53
2018-10-16T14:11:17.410Z,18.35
2018-10-16T14:13:51.883Z,16.47
2018-10-16T14:16:26.231Z,15.90
2018-10-16T14:19:00.718Z,16.67
2018-10-16T14:21:35.057Z,16.10
2018-10-16T14:24:10.017Z,15.93
2018-10-16T14:26:44.487Z,16.73
2018-10-16T14:29:19.071Z,15.07
2018-10-16T14:31:54.063Z,14.97
2018-10-16T14:34:28.613Z,13.70
2018-10-16T14:37:02.837Z,14.30
2018-10-16T14:39:37.262Z,13.83
2018-10-16T14:42:11.429Z,14.40
2018-10-16T14:44:45.797Z,14.97
2018-10-16T14:47:20.209Z,14.37
2018-10-16T14:49:54.675Z,14.77
2018-10-16T14:52:29.096Z,15.53
2018-10-16T14:55:04.135Z,14.40
2018-10-16T14:57:38.543Z,16.20
2018-10-16T15:00:13.762Z,14.77
2018-10-16T15:02:48.165Z,13.67
2018-10-16T15:05:22.593Z,16.37
2018-10-16T15:07:56.948Z,14.50
2018-10-16T15:10:31.334Z,14.53
2018-10-16T15:13:06.853Z,16.87
2018-10-16T15:15:41.611Z,16.60
2018-10-16T15:18:16.414Z,15.20
2018-10-16T15:20:51.030Z,15.93
2018-10-16T15:23:25.539Z,16.50
2018-10-16T15:26:01.820Z,14.90
2018-10-16T15:28:36.345Z,14.53
2018-10-16T15:31:10.984Z,15.57
2018-10-16T15:33:45.549Z,15.50
2018-10-16T15:36:20.049Z,17.13
2018-10-16T15:38:54.562Z,15.80
2018-10-16T15:41:28.981Z,15.30
2018-10-16T15:44:03.495Z,15.80
2018-10-16T15:46:38.936Z,15.87
2018-10-16T15:49:47.906Z,16.97
2018-10-16T15:52:22.270Z,15.90
2018-10-16T15:54:56.569Z,15.97
2018-10-16T15:57:31.044Z,17.23
2018-10-16T16:00:09.541Z,16.17
2018-10-16T16:02:43.971Z,15.40
2018-10-16T16:05:18.382Z,15.80
2018-10-16T16:07:53.049Z,16.30
2018-10-16T16:10:27.417Z,16.17
2018-10-16T16:13:06.406Z,17.23
2018-10-16T16:15:41.134Z,18.40
2018-10-16T16:18:15.849Z,15.57
2018-10-16T16:20:52.870Z,15.27
2018-10-16T16:23:28.269Z,14.80
2018-10-16T16:26:03.340Z,17.67
2018-10-16T16:28:37.908Z,16.37
2018-10-16T16:31:12.562Z,15.90
2018-10-16T16:33:48.084Z,15.77
2018-10-16T16:36:22.566Z,18.30
2018-10-16T16:38:56.788Z,17.50
2018-10-16T16:41:31.034Z,17.10
2018-10-16T16:44:06.628Z,17.27
2018-10-16T16:46:41.899Z,17.07
2018-10-16T16:49:16.795Z,17.70
2018-10-16T16:51:52.149Z,18.17
2018-10-16T16:54:27.441Z,16.67
2018-10-16T16:57:03.172Z,18.13
2018-10-16T16:59:37.669Z,18.07
2018-10-16T17:02:12.462Z,18.90
2018-10-16T17:04:47.033Z,21.40
2018-10-16T17:07:23.151Z,20.37
2018-10-16T17:09:57.582Z,18.30
2018-10-16T17:12:32.121Z,17.60
2018-10-16T17:15:08.683Z,19.43
2018-10-16T17:17:45.039Z,19.10
2018-10-16T17:23:02.926Z,18.10
2018-10-16T17:25:43.041Z,17.67
2018-10-16T17:28:20.163Z,20.67
2018-10-16T17:30:58.471Z,19.57
2018-10-16T17:33:36.142Z,18.67
2018-10-16T17:36:17.009Z,19.77
2018-10-16T17:38:52.092Z,20.60
2018-10-16T17:41:26.975Z,19.83
2018-10-16T17:44:05.406Z,18.87
2018-10-16T17:46:41.050Z,19.80
2018-10-16T17:49:17.084Z,19.77
2018-10-16T17:51:51.534Z,20.93
2018-10-16T17:54:26.728Z,20.83
2018-10-16T17:57:01.214Z,20.37
2018-10-16T17:59:37.405Z,21.00
2018-10-16T18:02:13.601Z,20.40
2018-10-16T18:04:48.291Z,20.63
2018-10-16T18:07:28.599Z,20.03
2018-10-16T18:10:06.805Z,19.63
2018-10-16T18:12:41.585Z,19.63
2018-10-16T18:15:17.793Z,20.90
2018-10-16T18:17:52.483Z,20.67
2018-10-16T18:20:29.773Z,19.80
2018-10-16T18:23:04.346Z,19.27
2018-10-16T18:25:40.065Z,21.80
2018-10-16T18:28:14.549Z,22.63
2018-10-16T18:30:49.005Z,19.10
2018-10-16T18:33:24.231Z,21.03
2018-10-16T18:35:58.596Z,19.20
2018-10-16T18:38:33.162Z,19.43
2018-10-16T18:41:10.845Z,19.97
2018-10-16T18:43:45.201Z,21.33
2018-10-16T18:46:20.228Z,21.60
2018-10-16T18:48:59.503Z,19.60
2018-10-16T18:51:36.635Z,20.57
2018-10-16T18:54:14.337Z,20.00
2018-10-16T18:56:48.743Z,21.80
2018-10-16T18:59:25.300Z,20.10
2018-10-16T19:02:00.418Z,21.00
2018-10-16T19:04:47.026Z,20.27
2018-10-16T19:07:37.866Z,25.03
2018-10-16T19:10:14.008Z,25.33
2018-10-16T19:12:52.428Z,24.97
2018-10-16T19:15:28.097Z,23.70
2018-10-16T19:18:03.968Z,22.97
2018-10-16T19:20:43.336Z,22.17
2018-10-16T19:23:25.326Z,23.73
2018-10-16T19:26:02.251Z,20.77
2018-10-16T19:28:42.749Z,22.00
2018-10-16T19:31:20.012Z,21.43
2018-10-16T19:34:00.033Z,22.70
2018-10-16T19:36:40.661Z,22.27
2018-10-16T19:39:16.983Z,26.33
2018-10-16T19:41:53.949Z,26.10
2018-10-16T19:44:31.031Z,24.37
2018-10-16T19:47:23.828Z,21.80
2018-10-16T19:50:06.084Z,22.53
2018-10-16T19:52:43.784Z,25.00
2018-10-16T19:55:20.965Z,24.63
2018-10-16T19:58:01.251Z,26.00
2018-10-16T20:00:42.442Z,25.17
2018-10-16T20:03:20.990Z,24.50
2018-10-16T20:05:56.697Z,24.63
2018-10-16T20:08:33.177Z,26.40
2018-10-16T20:11:08.231Z,23.70
2018-10-16T20:13:45.051Z,24.57
2018-10-16T20:16:29.673Z,26.37
2018-10-16T20:19:04.874Z,27.60
2018-10-16T20:21:41.150Z,26.50
2018-10-16T20:27:01.630Z,24.80
2018-10-16T20:29:37.992Z,24.50
2018-10-16T20:32:14.093Z,25.43
2018-10-16T20:34:51.070Z,24.27
2018-10-16T20:37:26.175Z,21.73
2018-10-16T20:40:02.182Z,23.27
2018-10-16T20:42:39.647Z,21.60
2018-10-16T20:45:16.414Z,24.20
2018-10-16T20:47:51.498Z,23.23
2018-10-16T20:50:26.121Z,22.67
2018-10-16T20:53:01.009Z,26.13
2018-10-16T20:55:37.295Z,24.83
2018-10-16T20:58:12.125Z,23.27
2018-10-16T21:00:46.672Z,24.07
2018-10-16T21:03:22.518Z,22.10
2018-10-16T21:06:00.471Z,25.60
2018-10-16T21:08:36.923Z,22.97
2018-10-16T21:11:11.720Z,22.17
2018-10-16T21:13:48.633Z,24.77
2018-10-16T21:16:27.930Z,24.20
2018-10-16T21:19:05.411Z,24.97
2018-10-16T21:21:51.889Z,26.07
2018-10-16T21:24:27.675Z,24.23
2018-10-16T21:27:07.630Z,24.27
2018-10-16T21:29:42.347Z,26.40
2018-10-16T21:32:19.420Z,27.23
2018-10-16T21:34:56.702Z,29.83
2018-10-16T21:40:15.941Z,30.13
2018-10-16T21:42:54.791Z,28.93
2018-10-16T21:45:29.708Z,28.53
2018-10-16T21:48:06.139Z,30.63
2018-10-16T21:50:41.993Z,30.50
2018-10-16T21:53:17.528Z,29.60
2018-10-16T21:55:52.347Z,30.90
2018-10-16T21:58:27.530Z,29.83
2018-10-16T22:01:10.188Z,31.20
2018-10-16T22:03:45.712Z,30.90
2018-10-16T22:06:21.486Z,34.87
2018-10-16T22:08:56.493Z,36.03
2018-10-16T22:11:31.998Z,35.50
2018-10-16T22:14:07.000Z,35.90
2018-10-16T22:16:44.435Z,36.40
2018-10-16T22:19:27.485Z,32.70
2018-10-16T22:22:02.503Z,31.10
2018-10-16T22:24:39.400Z,32.13
2018-10-16T22:27:14.240Z,31.00
2018-10-16T22:29:53.201Z,31.27
2018-10-16T22:32:32.533Z,32.97
2018-10-16T22:37:56.859Z,31.57
2018-10-16T22:43:39.130Z,32.70
2018-10-16T22:46:22.004Z,31.70
2018-10-16T22:48:57.781Z,31.27
2018-10-16T22:51:32.549Z,32.47
2018-10-16T22:54:08.288Z,28.83
2018-10-16T22:56:44.352Z,30.83
2018-10-16T22:59:32.337Z,29.27
2018-10-16T23:02:06.906Z,31.97
2018-10-16T23:04:41.817Z,28.80
2018-10-16T23:07:16.865Z,31.27
2018-10-16T23:09:52.418Z,32.50
2018-10-16T23:12:28.358Z,31.27
2018-10-16T23:15:03.840Z,30.57
2018-10-16T23:17:39.773Z,30.57
2018-10-16T23:20:14.808Z,33.90
2018-10-16T23:22:49.289Z,32.67
2018-10-16T23:25:24.978Z,33.63
2018-10-16T23:28:00.455Z,35.20
2018-10-16T23:30:36.224Z,35.20
2018-10-16T23:33:12.834Z,31.90
2018-10-16T23:35:47.293Z,33.73
2018-10-16T23:38:25.408Z,34.23
2018-10-16T23:41:00.395Z,33.90
2018-10-16T23:43:35.012Z,34.23
2018-10-16T23:46:10.631Z,34.93
2018-10-16T23:48:46.177Z,35.10
2018-10-16T23:51:25.107Z,37.80
2018-10-16T23:53:59.806Z,34.87
2018-10-16T23:56:34.389Z,37.13
2018-10-16T23:59:09.532Z,36.43
